Atmospheric History
02/08/2018 17:39  to  2/9/2018 17:39
Change End Date:
To complete the export process:
1) Select all of the data below
2) Copy the data to the clipboard
3) Open a word processor such as Notepad
4) Paste the data into the word processor
5) Save the file

Date/Time (MDT), AirTemp, RH, Dewpoint ,AvgWindSpeed, GustWindSpeed, WindDirection, PrecipType, PrecipIntensity, PrecipAccumulation, PrecipRate
02/09/2018 17:37, 4, 81, 0 ,1, 2, SW, None, None, ,  
02/09/2018 17:37, 4, 81, 0 ,1, 2, SW, None, None, ,  
02/09/2018 17:27, 6, 81, 1 ,2, 5, S, Yes, , ,  
02/09/2018 17:22, 5, 80, 1 ,4, 5, S, None, None, ,  
02/09/2018 17:17, 8, 81, 3 ,3, 4, S, Yes, , ,  
02/09/2018 17:07, 9, 81, 4 ,4, 7, S, Yes, , ,  
02/09/2018 17:07, 9, 81, 4 ,4, 7, S, Yes, , ,  
02/09/2018 16:57, 8, 81, 4 ,5, 6, S, None, None, ,  
02/09/2018 16:52, 8, 81, 4 ,4, 6, S, Yes, , ,  
02/09/2018 16:47, 8, 80, 4 ,5, 7, S, None, None, ,  
02/09/2018 16:37, 10, 80, 5 ,6, 7, S, None, None, ,  
02/09/2018 16:37, 10, 80, 5 ,6, 7, S, None, None, ,  
02/09/2018 16:27, 11, 81, 6 ,6, 7, S, None, None, ,  
02/09/2018 16:22, 11, 81, 6 ,6, 7, S, None, None, ,  
02/09/2018 16:17, 12, 81, 7 ,4, 6, S, None, None, ,  
02/09/2018 16:07, 12, 80, 7 ,3, 4, S, None, None, ,  
02/09/2018 16:07, 12, 80, 7 ,3, 4, S, None, None, ,  
02/09/2018 15:57, 11, 80, 7 ,4, 6, S, None, None, ,  
02/09/2018 15:52, 11, 80, 6 ,5, 6, S, None, None, ,  
02/09/2018 15:47, 12, 79, 7 ,6, 6, S, Yes, , ,  
02/09/2018 15:37, 12, 78, 7 ,5, 6, S, Yes, , ,  
02/09/2018 15:36, 12, 78, 7 ,5, 6, S, Yes, , ,  
02/09/2018 15:26, 13, 75, 7 ,4, 4, SW, None, None, ,  
02/09/2018 15:22, 14, 74, 7 ,2, 3, S, Yes, , ,  
02/09/2018 15:16, 15, 71, 7 ,2, 2, S, Yes, , ,  
02/09/2018 15:07, 16, 65, 6 ,1, 1, SW, Yes, , ,  
02/09/2018 15:06, 17, 65, 7 ,1, 1, W, Yes, , ,  
02/09/2018 14:56, 19, 63, 9 ,0, 2, W, Yes, , ,  
02/09/2018 14:52, 19, 68, 10 ,1, 4, NW, Yes, , ,  
02/09/2018 14:46, 16, 71, 9 ,2, 4, NW, Yes, , ,  
02/09/2018 14:37, 14, 72, 6 ,4, 4, NW, Yes, , ,  
02/09/2018 14:36, 13, 71, 6 ,4, 4, N, None, None, ,  
02/09/2018 14:26, 13, 69, 5 ,1, 3, N, Yes, , ,  
02/09/2018 14:22, 13, 66, 4 ,2, 4, NE, Yes, , ,  
02/09/2018 14:16, 17, 61, 6 ,1, 3, NE, Yes, , ,  
02/09/2018 14:07, 13, 71, 6 ,3, 3, W, Yes, , ,  
02/09/2018 14:06, 13, 71, 6 ,2, 3, W, Yes, , ,  
02/09/2018 13:56, 11, 73, 4 ,1, 2, SE, Yes, , ,  
02/09/2018 13:52, 11, 73, 4 ,0, 3, S, Yes, , ,  
02/09/2018 13:46, 10, 73, 3 ,2, 4, S, Yes, , ,  
02/09/2018 13:37, 11, 71, 3 ,3, 3, SW, Yes, , ,  
02/09/2018 13:36, 11, 71, 3 ,3, 3, SW, None, None, ,  
02/09/2018 13:26, 11, 66, 2 ,0, 1, SW, Yes, , ,  
02/09/2018 13:22, 12, 63, 2 ,1, 1, S, Yes, , ,  
02/09/2018 13:16, 15, 62, 4 ,0, 2, S, Yes, , ,  
02/09/2018 13:07, 14, 64, 4 ,1, 2, W, Yes, , ,  
02/09/2018 13:06, 14, 65, 4 ,1, 2, NW, Yes, , ,  
02/09/2018 12:56, 11, 69, 3 ,0, 1, W, Yes, , ,  
02/09/2018 12:52, 11, 68, 3 ,0, 1, SE, Yes, , ,  
02/09/2018 12:46, 10, 68, 2 ,0, 2, W, Yes, , ,  
02/09/2018 12:37, 12, 69, 4 ,1, 2, W, Yes, , ,  
02/09/2018 12:36, 13, 71, 5 ,0, 2, W, Yes, , ,  
02/09/2018 12:26, 8, 74, 2 ,1, 3, SW, Yes, , ,  
02/09/2018 12:22, 8, 72, 1 ,2, 3, SW, Yes, , ,  
02/09/2018 12:16, 9, 72, 2 ,1, 2, W, None, None, ,  
02/09/2018 12:07, 11, 69, 3 ,1, 2, W, Yes, , ,  
02/09/2018 12:05, 11, 70, 3 ,1, 2, NW, Yes, , ,  
02/09/2018 11:55, 11, 72, 4 ,1, 3, NW, Yes, , ,  
02/09/2018 11:52, 10, 73, 3 ,1, 3, NW, Yes, , ,  
02/09/2018 11:45, 8, 75, 2 ,1, 2, N, Yes, , ,  
02/09/2018 11:37, 7, 75, 1 ,1, 4, N, Yes, , ,  
02/09/2018 11:35, 7, 75, 1 ,2, 4, N, Yes, , ,  
02/09/2018 11:25, 6, 75, 0 ,4, 7, N, Yes, , ,  
02/09/2018 11:22, 6, 75, 0 ,4, 7, N, Yes, , ,  
02/09/2018 11:15, 6, 75, 0 ,5, 9, N, Yes, , ,  
02/09/2018 11:07, 6, 75, 0 ,8, 9, N, Yes, , ,  
02/09/2018 11:05, 5, 75, -1 ,9, 9, N, Yes, , ,  
02/09/2018 10:55, 5, 74, -1 ,6, 9, N, Yes, , ,  
02/09/2018 10:52, 5, 74, -2 ,6, 9, N, Yes, , ,  
02/09/2018 10:45, 5, 73, -2 ,6, 10, N, None, None, ,  
02/09/2018 10:37, 4, 73, -2 ,7, 9, N, None, None, ,  
02/09/2018 10:35, 4, 72, -3 ,6, 9, N, Yes, , ,  
02/09/2018 10:25, 4, 73, -2 ,7, 9, N, None, None, ,  
02/09/2018 10:22, 4, 74, -3 ,6, 8, N, None, None, ,  
02/09/2018 10:15, 2, 74, -4 ,7, 8, N, None, None, ,  
02/09/2018 10:07, 2, 74, -4 ,7, 9, N, None, None, ,  
02/09/2018 10:05, 2, 74, -4 ,7, 9, N, None, None, ,  
02/09/2018 09:55, 2, 74, -4 ,7, 9, N, None, None, ,  
02/09/2018 09:52, 2, 75, -4 ,5, 9, NW, Yes, , ,  
02/09/2018 09:45, 2, 75, -4 ,6, 9, N, Yes, , ,  
02/09/2018 09:37, 1, 75, -5 ,8, 9, N, None, None, ,  
02/09/2018 09:35, 1, 76, -5 ,7, 9, N, None, None, ,  
02/09/2018 09:24, 1, 76, -4 ,9, 10, N, None, None, ,  
02/09/2018 09:22, 1, 76, -4 ,8, 10, N, None, None, ,  
02/09/2018 09:14, 1, 77, -4 ,7, 10, N, None, None, ,  
02/09/2018 09:07, 1, 77, -4 ,9, 10, N, None, None, ,  
02/09/2018 09:04, 1, 78, -4 ,7, 10, N, None, None, ,  
02/09/2018 08:54, 1, 78, -5 ,7, 9, N, Yes, , ,  
02/09/2018 08:52, 1, 78, -5 ,6, 9, N, None, None, ,  
02/09/2018 08:44, 1, 78, -5 ,7, 9, N, None, None, ,  
02/09/2018 08:37, 1, 78, -5 ,7, 11, N, None, None, ,  
02/09/2018 08:34, 1, 78, -4 ,8, 11, N, None, None, ,  
02/09/2018 08:24, 1, 78, -4 ,7, 9, N, Yes, , ,  
02/09/2018 08:22, 1, 78, -4 ,8, 9, N, Yes, , ,  
02/09/2018 08:14, 1, 78, -4 ,7, 9, N, Yes, , ,  
02/09/2018 08:07, 1, 78, -4 ,6, 8, N, Yes, , ,  
02/09/2018 08:04, 1, 78, -4 ,4, 6, N, None, None, ,  
02/09/2018 07:54, 1, 78, -4 ,4, 4, N, None, None, ,  
02/09/2018 07:52, 1, 78, -4 ,1, 4, N, Yes, , ,  
02/09/2018 07:44, 1, 78, -5 ,3, 9, NW, None, None, ,  
02/09/2018 07:37, 1, 78, -5 ,7, 10, N, None, None, ,  
02/09/2018 07:34, 1, 78, -5 ,9, 10, N, None, None, ,  
02/09/2018 07:24, 1, 78, -5 ,10, 12, N, None, None, ,  
02/09/2018 07:22, 1, 78, -5 ,9, 11, N, None, None, ,  
02/09/2018 07:14, 1, 79, -4 ,7, 9, N, Yes, , ,  
02/09/2018 07:07, 1, 79, -4 ,4, 9, N, Yes, , ,  
02/09/2018 07:04, 1, 79, -4 ,5, 11, N, None, None, ,  
02/09/2018 06:54, 1, 79, -4 ,7, 10, N, Yes, , ,  
02/09/2018 06:52, 1, 79, -4 ,7, 11, N, Yes, , ,  
02/09/2018 06:44, 1, 80, -4 ,9, 12, N, Yes, , ,  
02/09/2018 06:37, 1, 80, -3 ,10, 13, N, None, None, ,  
02/09/2018 06:34, 1, 80, -3 ,12, 13, N, None, None, ,  
02/09/2018 06:24, 1, 80, -3 ,9, 10, N, Yes, , ,  
02/09/2018 06:22, 1, 80, -3 ,8, 10, N, Yes, , ,  
02/09/2018 06:13, 1, 80, -3 ,7, 10, N, Yes, , ,  
02/09/2018 06:07, 1, 79, -3 ,8, 12, N, Yes, , ,  
02/09/2018 06:03, 1, 79, -4 ,9, 12, N, Yes, , ,  
02/09/2018 05:53, 1, 78, -4 ,11, 12, N, Yes, , ,  
02/09/2018 05:52, 1, 78, -4 ,10, 12, N, Yes, , ,  
02/09/2018 05:43, 1, 78, -4 ,9, 13, N, None, None, ,  
02/09/2018 05:37, 2, 78, -3 ,12, 13, N, None, None, ,  
02/09/2018 05:33, 2, 78, -3 ,11, 13, N, None, None, ,  
02/09/2018 05:23, 2, 79, -3 ,9, 11, N, Yes, , ,  
02/09/2018 05:22, 2, 79, -3 ,9, 10, N, None, None, ,  
02/09/2018 05:13, 2, 78, -3 ,7, 9, N, Yes, , ,  
02/09/2018 05:07, 2, 78, -3 ,7, 11, N, Yes, , ,  
02/09/2018 05:03, 2, 78, -3 ,9, 11, N, None, None, ,  
02/09/2018 04:53, 1, 78, -4 ,9, 12, N, None, None, ,  
02/09/2018 04:52, 1, 78, -4 ,9, 12, N, None, None, ,  
02/09/2018 04:43, 1, 79, -3 ,9, 13, N, None, None, ,  
02/09/2018 04:37, 2, 79, -3 ,11, 14, N, None, None, ,  
02/09/2018 04:33, 1, 79, -3 ,12, 14, N, None, None, ,  
02/09/2018 04:23, 2, 79, -3 ,9, 12, N, None, None, ,  
02/09/2018 04:22, 1, 79, -3 ,10, 12, N, None, None, ,  
02/09/2018 04:13, 2, 80, -2 ,10, 14, N, None, None, ,  
02/09/2018 04:07, 3, 80, -2 ,12, 14, N, None, None, ,  
02/09/2018 04:03, 2, 80, -2 ,11, 14, N, None, None, ,  
02/09/2018 03:53, 3, 81, -1 ,12, 13, N, None, None, ,  
02/09/2018 03:52, 3, 81, -1 ,11, 12, N, None, None, ,  
02/09/2018 03:43, 4, 82, -1 ,10, 12, N, None, None, ,  
02/09/2018 03:37, 4, 82, 0 ,9, 12, N, None, None, ,  
02/09/2018 03:33, 4, 83, 0 ,9, 11, N, None, None, ,  
02/09/2018 03:23, 4, 83, 0 ,9, 12, N, Yes, , ,  
02/09/2018 03:22, 4, 83, 0 ,8, 12, N, Yes, , ,  
02/09/2018 03:13, 5, 83, 1 ,6, 8, N, Yes, , ,  
02/09/2018 03:07, 5, 83, 1 ,4, 7, N, Yes, , ,  
02/09/2018 03:03, 5, 83, 1 ,6, 9, N, Yes, , ,  
02/09/2018 02:53, 5, 83, 1 ,9, 10, N, Yes, , ,  
02/09/2018 02:52, 5, 83, 1 ,8, 10, N, Yes, , ,  
02/09/2018 02:43, 5, 83, 1 ,5, 9, N, Yes, , ,  
02/09/2018 02:37, 4, 83, 1 ,8, 11, NE, Yes, , ,  
02/09/2018 02:33, 4, 83, 1 ,8, 11, NE, Yes, , ,  
02/09/2018 02:23, 5, 83, 1 ,7, 12, N, Yes, , ,  
02/09/2018 02:22, 5, 83, 1 ,8, 13, N, Yes, , ,  
02/09/2018 02:13, 5, 83, 1 ,14, 19, N, Yes, , ,  
02/09/2018 02:07, 5, 83, 1 ,17, 19, NE, Yes, , ,  
02/09/2018 02:03, 5, 83, 2 ,15, 18, NE, None, None, ,  
02/09/2018 01:53, 6, 84, 2 ,12, 14, NE, Yes, , ,  
02/09/2018 01:52, 6, 84, 2 ,12, 14, N, Yes, , ,  
02/09/2018 01:43, 6, 83, 3 ,10, 11, N, Yes, , ,  
02/09/2018 01:37, 6, 83, 2 ,9, 14, N, Yes, , ,  
02/09/2018 01:33, 6, 82, 2 ,12, 17, N, Yes, , ,  
02/09/2018 01:23, 7, 81, 3 ,16, 19, N, None, None, ,  
02/09/2018 01:22, 7, 81, 3 ,16, 19, N, None, None, ,  
02/09/2018 01:13, 8, 80, 3 ,17, 19, N, None, None, ,  
02/09/2018 01:07, 8, 80, 3 ,16, 18, N, None, None, ,  
02/09/2018 01:03, 8, 79, 2 ,12, 18, N, None, None, ,  
02/09/2018 00:53, 8, 78, 2 ,15, 19, N, None, None, ,  
02/09/2018 00:52, 8, 78, 2 ,15, 19, N, None, None, ,  
02/09/2018 00:43, 8, 78, 2 ,16, 18, N, None, None, ,  
02/09/2018 00:37, 8, 78, 3 ,14, 16, N, None, None, ,  
02/09/2018 00:32, 8, 79, 3 ,13, 16, N, None, None, ,  
02/09/2018 00:22, 7, 78, 2 ,13, 18, N, None, None, ,  
02/09/2018 00:22, 7, 78, 2 ,13, 18, N, None, None, ,  
02/09/2018 00:12, 7, 78, 2 ,16, 22, N, None, None, ,  
02/09/2018 00:07, 8, 79, 2 ,16, 22, N, None, None, ,  
02/09/2018 00:02, 8, 78, 2 ,18, 21, N, None, None, ,  
02/08/2018 23:52, 8, 79, 3 ,14, 17, N, None, None, ,  
02/08/2018 23:52, 8, 79, 3 ,15, 17, N, None, None, ,  
02/08/2018 23:42, 8, 79, 3 ,12, 19, N, None, None, ,  
02/08/2018 23:37, 8, 79, 3 ,14, 19, N, None, None, ,  
02/08/2018 23:32, 9, 80, 4 ,14, 19, N, None, None, ,  
02/08/2018 23:22, 10, 80, 5 ,16, 20, N, None, None, ,  
02/08/2018 23:22, 10, 80, 5 ,16, 20, N, None, None, ,  
02/08/2018 23:12, 9, 80, 4 ,14, 18, N, None, None, ,  
02/08/2018 23:07, 10, 80, 5 ,16, 21, N, None, None, ,  
02/08/2018 23:02, 11, 80, 6 ,14, 24, N, None, None, ,  
02/08/2018 22:52, 11, 81, 6 ,21, 23, N, None, None, ,  
02/08/2018 22:52, 11, 81, 6 ,21, 23, N, None, None, ,  
02/08/2018 22:42, 10, 82, 6 ,15, 23, N, None, None, ,  
02/08/2018 22:37, 11, 82, 7 ,20, 23, N, None, None, ,  
02/08/2018 22:32, 13, 83, 9 ,18, 22, N, None, None, ,  
02/08/2018 22:22, 12, 84, 9 ,18, 21, N, None, None, ,  
02/08/2018 22:22, 12, 84, 9 ,17, 21, N, None, None, ,  
02/08/2018 22:12, 13, 85, 9 ,19, 22, N, None, None, ,  
02/08/2018 22:07, 14, 84, 10 ,19, 22, N, None, None, ,  
02/08/2018 22:02, 17, 84, 13 ,18, 21, N, None, None, ,  
02/08/2018 21:52, 23, 86, 20 ,7, 9, N, Yes, , ,  
02/08/2018 21:52, 23, 85, 20 ,7, 9, N, Yes, , ,  
02/08/2018 21:42, 23, 84, 19 ,6, 11, NE, None, None, ,  
02/08/2018 21:37, 23, 83, 19 ,7, 11, N, None, None, ,  
02/08/2018 21:32, 23, 81, 19 ,10, 11, N, None, None, ,  
02/08/2018 21:22, 31, 78, 25 ,2, 4, NW, None, None, ,  
02/08/2018 21:22, 31, 77, 24 ,2, 4, NW, None, None, ,  
02/08/2018 21:12, 33, 72, 25 ,1, 9, NE, None, None, ,  
02/08/2018 21:07, 34, 71, 25 ,2, 10, NE, Yes, , ,  
02/08/2018 21:01, 34, 70, 25 ,7, 11, SW, None, None, ,  
02/08/2018 20:52, 34, 68, 25 ,4, 9, W, None, None, ,  
02/08/2018 20:51, 34, 68, 25 ,4, 9, W, None, None, ,  
02/08/2018 20:41, 35, 65, 24 ,8, 12, SW, None, None, ,  
02/08/2018 20:37, 34, 66, 24 ,6, 9, SW, Yes, , ,  
02/08/2018 20:31, 35, 65, 24 ,7, 9, W, None, None, ,  
02/08/2018 20:22, 35, 64, 24 ,7, 16, SW, None, None, ,  
02/08/2018 20:21, 35, 64, 24 ,7, 16, SW, None, None, ,  
02/08/2018 20:11, 35, 62, 23 ,9, 15, W, None, None, ,  
02/08/2018 20:07, 35, 61, 23 ,12, 16, W, None, None, ,  
02/08/2018 20:01, 36, 57, 22 ,9, 17, W, None, None, ,  
02/08/2018 19:52, 37, 55, 22 ,16, 22, W, None, None, ,  
02/08/2018 19:51, 37, 54, 22 ,18, 22, SW, None, None, ,  
02/08/2018 19:41, 37, 52, 21 ,7, 20, SW, None, None, ,  
02/08/2018 19:37, 37, 53, 21 ,10, 20, SW, None, None, ,  
02/08/2018 19:31, 37, 50, 20 ,13, 20, SW, None, None, ,  
02/08/2018 19:22, 37, 52, 21 ,10, 18, W, None, None, ,  
02/08/2018 19:21, 37, 51, 20 ,9, 18, W, None, None, ,  
02/08/2018 19:11, 37, 49, 20 ,12, 21, SW, None, None, ,  
02/08/2018 19:07, 36, 50, 20 ,4, 20, SW, None, None, ,  
02/08/2018 19:01, 37, 49, 20 ,8, 20, SW, None, None, ,  
02/08/2018 18:52, 36, 53, 21 ,9, 17, SW, None, None, ,  
02/08/2018 18:51, 36, 50, 20 ,9, 17, SW, None, None, ,  
02/08/2018 18:40, 36, 54, 21 ,10, 17, SW, None, None, ,  
02/08/2018 18:37, 36, 52, 21 ,11, 21, SW, None, None, ,  
02/08/2018 18:30, 37, 49, 20 ,10, 21, SW, None, None, ,  
02/08/2018 18:22, 37, 49, 20 ,11, 18, SW, None, None, ,  
02/08/2018 18:20, 37, 48, 20 ,13, 21, W, None, None, ,  
02/08/2018 18:10, 37, 51, 20 ,9, 21, SW, None, None, ,  
02/08/2018 18:07, 37, 51, 20 ,9, 21, SW, None, None, ,  
02/08/2018 18:00, 38, 47, 20 ,12, 22, S, None, None, ,  
02/08/2018 17:52, 38, 47, 20 ,9, 21, SW, None, None, ,  
02/08/2018 17:50, 38, 45, 19 ,10, 22, SW, None, None, ,  
02/08/2018 17:40, 38, 47, 20 ,15, 24, SW, None, None, ,  
Change End Date:

Copyright © 1998-2015 Vaisala, Inc.
All Rights Reserved
Send comments about the data to:
SCAN Web ® is a registered trademark of Vaisala, Inc.
SCAN Web Version 6.0